sensor_id;sensor_type;location;lat;lon;timestamp;temperature;humidity
54158;DHT22;40065;49.894;10.358;2023-02-01T00:02:21;5.20;99.90
54158;DHT22;40065;49.894;10.358;2023-02-01T00:07:23;5.30;99.90
54158;DHT22;40065;49.894;10.358;2023-02-01T00:12:25;5.30;99.90
54158;DHT22;40065;49.894;10.358;2023-02-01T00:17:27;5.40;99.90
54158;DHT22;40065;49.894;10.358;2023-02-01T00:22:29;5.40;99.90
54158;DHT22;40065;49.894;10.358;2023-02-01T00:27:31;5.40;99.90
54158;DHT22;40065;49.894;10.358;2023-02-01T00:32:33;5.40;99.90
54158;DHT22;40065;49.894;10.358;2023-02-01T00:37:34;5.50;99.90
54158;DHT22;40065;49.894;10.358;2023-02-01T00:42:36;5.40;99.90
54158;DHT22;40065;49.894;10.358;2023-02-01T00:47:38;5.40;99.90
54158;DHT22;40065;49.894;10.358;2023-02-01T00:52:40;5.30;99.90
54158;DHT22;40065;49.894;10.358;2023-02-01T00:57:42;5.40;99.90
54158;DHT22;40065;49.894;10.358;2023-02-01T01:02:44;5.40;99.90
54158;DHT22;40065;49.894;10.358;2023-02-01T01:07:46;5.50;99.90
54158;DHT22;40065;49.894;10.358;2023-02-01T01:12:47;5.40;99.90
54158;DHT22;40065;49.894;10.358;2023-02-01T01:17:49;5.30;99.90
54158;DHT22;40065;49.894;10.358;2023-02-01T01:22:51;5.40;99.90
54158;DHT22;40065;49.894;10.358;2023-02-01T01:27:53;5.40;99.90
54158;DHT22;40065;49.894;10.358;2023-02-01T01:32:55;5.40;99.90
54158;DHT22;40065;49.894;10.358;2023-02-01T01:37:57;5.30;99.90
54158;DHT22;40065;49.894;10.358;2023-02-01T01:43:00;5.40;99.90
54158;DHT22;40065;49.894;10.358;2023-02-01T01:48:09;5.20;99.90
54158;DHT22;40065;49.894;10.358;2023-02-01T01:53:19;5.10;99.90
54158;DHT22;40065;49.894;10.358;2023-02-01T01:58:25;5.10;99.90
54158;DHT22;40065;49.894;10.358;2023-02-01T02:03:37;5.20;99.90
54158;DHT22;40065;49.894;10.358;2023-02-01T02:08:40;5.20;99.90
54158;DHT22;40065;49.894;10.358;2023-02-01T02:13:46;5.40;99.90
54158;DHT22;40065;49.894;10.358;2023-02-01T02:30:00;5.20;99.90
54158;DHT22;40065;49.894;10.358;2023-02-01T02:35:39;5.20;99.90
54158;DHT22;40065;49.894;10.358;2023-02-01T02:41:18;5.30;99.90
54158;DHT22;40065;49.894;10.358;2023-02-01T02:46:47;5.30;99.90
54158;DHT22;40065;49.894;10.358;2023-02-01T02:52:13;5.40;99.90
54158;DHT22;40065;49.894;10.358;2023-02-01T02:57:40;5.30;99.90
54158;DHT22;40065;49.894;10.358;2023-02-01T03:03:02;5.20;99.90
54158;DHT22;40065;49.894;10.358;2023-02-01T03:08:25;5.30;99.90
54158;DHT22;40065;49.894;10.358;2023-02-01T03:13:45;5.20;99.90
54158;DHT22;40065;49.894;10.358;2023-02-01T03:18:57;5.20;99.90
54158;DHT22;40065;49.894;10.358;2023-02-01T03:24:18;5.30;99.90
54158;DHT22;40065;49.894;10.358;2023-02-01T03:29:27;5.30;99.90
54158;DHT22;40065;49.894;10.358;2023-02-01T03:34:29;5.40;99.90
54158;DHT22;40065;49.894;10.358;2023-02-01T03:39:38;5.40;99.90
54158;DHT22;40065;49.894;10.358;2023-02-01T03:44:50;5.50;99.90
54158;DHT22;40065;49.894;10.358;2023-02-01T03:50:05;5.40;99.90
54158;DHT22;40065;49.894;10.358;2023-02-01T03:55:09;5.40;99.90
54158;DHT22;40065;49.894;10.358;2023-02-01T04:00:20;5.40;99.90
54158;DHT22;40065;49.894;10.358;2023-02-01T04:05:24;5.50;99.90
54158;DHT22;40065;49.894;10.358;2023-02-01T04:10:31;5.50;99.90
54158;DHT22;40065;49.894;10.358;2023-02-01T04:15:33;5.40;99.90
54158;DHT22;40065;49.894;10.358;2023-02-01T04:20:36;5.50;99.90
54158;DHT22;40065;49.894;10.358;2023-02-01T04:25:38;5.60;99.90
54158;DHT22;40065;49.894;10.358;2023-02-01T04:30:40;5.50;99.90
54158;DHT22;40065;49.894;10.358;2023-02-01T04:35:41;5.60;99.90
54158;DHT22;40065;49.894;10.358;2023-02-01T04:40:46;5.50;99.90
54158;DHT22;40065;49.894;10.358;2023-02-01T04:45:49;5.50;99.90
54158;DHT22;40065;49.894;10.358;2023-02-01T04:50:51;5.40;99.90
54158;DHT22;40065;49.894;10.358;2023-02-01T04:55:53;5.50;99.90
54158;DHT22;40065;49.894;10.358;2023-02-01T05:00:55;5.40;99.90
54158;DHT22;40065;49.894;10.358;2023-02-01T05:05:57;5.40;99.90
54158;DHT22;40065;49.894;10.358;2023-02-01T05:10:59;5.40;99.90
54158;DHT22;40065;49.894;10.358;2023-02-01T05:16:04;5.40;99.90
54158;DHT22;40065;49.894;10.358;2023-02-01T05:21:06;5.30;99.90
54158;DHT22;40065;49.894;10.358;2023-02-01T05:26:08;5.30;99.90
54158;DHT22;40065;49.894;10.358;2023-02-01T05:31:11;5.30;99.90
54158;DHT22;40065;49.894;10.358;2023-02-01T05:36:13;5.30;99.90
54158;DHT22;40065;49.894;10.358;2023-02-01T05:41:15;5.30;99.90
54158;DHT22;40065;49.894;10.358;2023-02-01T05:46:17;5.30;99.90
54158;DHT22;40065;49.894;10.358;2023-02-01T05:51:19;5.40;99.90
54158;DHT22;40065;49.894;10.358;2023-02-01T05:56:21;5.40;99.90
54158;DHT22;40065;49.894;10.358;2023-02-01T06:01:23;5.40;99.90
54158;DHT22;40065;49.894;10.358;2023-02-01T06:06:25;5.40;99.90
54158;DHT22;40065;49.894;10.358;2023-02-01T06:11:27;5.50;99.90
54158;DHT22;40065;49.894;10.358;2023-02-01T06:16:33;5.50;99.90
54158;DHT22;40065;49.894;10.358;2023-02-01T06:21:36;5.50;99.90
54158;DHT22;40065;49.894;10.358;2023-02-01T06:26:38;5.40;99.90
54158;DHT22;40065;49.894;10.358;2023-02-01T06:31:41;5.40;99.90
54158;DHT22;40065;49.894;10.358;2023-02-01T06:36:44;5.30;99.90
54158;DHT22;40065;49.894;10.358;2023-02-01T06:41:49;5.30;99.90
54158;DHT22;40065;49.894;10.358;2023-02-01T06:46:51;5.20;99.90
54158;DHT22;40065;49.894;10.358;2023-02-01T06:51:53;5.20;99.90
54158;DHT22;40065;49.894;10.358;2023-02-01T06:56:55;5.10;99.90
54158;DHT22;40065;49.894;10.358;2023-02-01T07:01:57;5.10;99.90
54158;DHT22;40065;49.894;10.358;2023-02-01T07:06:59;5.10;99.90
54158;DHT22;40065;49.894;10.358;2023-02-01T07:12:00;5.10;99.90
54158;DHT22;40065;49.894;10.358;2023-02-01T07:17:03;4.90;99.90
54158;DHT22;40065;49.894;10.358;2023-02-01T07:22:05;4.80;99.90
54158;DHT22;40065;49.894;10.358;2023-02-01T07:27:09;4.90;99.90
54158;DHT22;40065;49.894;10.358;2023-02-01T07:32:13;4.90;99.90
54158;DHT22;40065;49.894;10.358;2023-02-01T07:37:19;5.00;99.90
54158;DHT22;40065;49.894;10.358;2023-02-01T07:42:21;5.20;99.90
54158;DHT22;40065;49.894;10.358;2023-02-01T07:47:23;5.30;99.90
54158;DHT22;40065;49.894;10.358;2023-02-01T07:52:27;5.30;99.90
54158;DHT22;40065;49.894;10.358;2023-02-01T07:57:30;5.40;99.90
54158;DHT22;40065;49.894;10.358;2023-02-01T08:02:31;5.40;99.90
54158;DHT22;40065;49.894;10.358;2023-02-01T08:07:33;5.50;99.90
54158;DHT22;40065;49.894;10.358;2023-02-01T08:12:35;5.60;99.90
54158;DHT22;40065;49.894;10.358;2023-02-01T08:17:37;5.50;99.90
54158;DHT22;40065;49.894;10.358;2023-02-01T08:22:39;5.50;99.90
54158;DHT22;40065;49.894;10.358;2023-02-01T08:27:42;5.80;99.90
54158;DHT22;40065;49.894;10.358;2023-02-01T08:32:43;6.90;99.90
54158;DHT22;40065;49.894;10.358;2023-02-01T08:37:45;10.30;99.90
54158;DHT22;40065;49.894;10.358;2023-02-01T08:42:47;12.20;99.90
54158;DHT22;40065;49.894;10.358;2023-02-01T08:47:53;10.00;99.90
54158;DHT22;40065;49.894;10.358;2023-02-01T08:52:55;8.40;99.90
54158;DHT22;40065;49.894;10.358;2023-02-01T08:57:57;7.80;99.90
54158;DHT22;40065;49.894;10.358;2023-02-01T09:02:58;9.40;99.90
54158;DHT22;40065;49.894;10.358;2023-02-01T09:08:00;12.50;96.90
54158;DHT22;40065;49.894;10.358;2023-02-01T09:13:02;10.40;98.80
54158;DHT22;40065;49.894;10.358;2023-02-01T09:18:05;8.80;99.90
54158;DHT22;40065;49.894;10.358;2023-02-01T09:23:07;7.90;99.90
54158;DHT22;40065;49.894;10.358;2023-02-01T09:28:09;7.80;99.90
54158;DHT22;40065;49.894;10.358;2023-02-01T09:33:11;7.50;99.90
54158;DHT22;40065;49.894;10.358;2023-02-01T09:38:13;7.40;99.90
54158;DHT22;40065;49.894;10.358;2023-02-01T09:43:25;7.40;99.90
54158;DHT22;40065;49.894;10.358;2023-02-01T09:48:36;7.40;99.90
54158;DHT22;40065;49.894;10.358;2023-02-01T09:53:46;7.30;99.90
54158;DHT22;40065;49.894;10.358;2023-02-01T10:04:08;7.30;99.90
54158;DHT22;40065;49.894;10.358;2023-02-01T10:19:59;7.10;99.90
54158;DHT22;40065;49.894;10.358;2023-02-01T10:35:21;7.10;99.90
54158;DHT22;40065;49.894;10.358;2023-02-01T10:40:26;7.20;99.90
54158;DHT22;40065;49.894;10.358;2023-02-01T10:45:29;7.30;99.90
54158;DHT22;40065;49.894;10.358;2023-02-01T10:50:45;7.40;99.90
54158;DHT22;40065;49.894;10.358;2023-02-01T10:55:51;7.40;99.90
54158;DHT22;40065;49.894;10.358;2023-02-01T11:06:01;7.50;99.90
54158;DHT22;40065;49.894;10.358;2023-02-01T11:11:05;7.50;99.90
54158;DHT22;40065;49.894;10.358;2023-02-01T11:16:13;7.50;99.90
54158;DHT22;40065;49.894;10.358;2023-02-01T11:21:16;7.30;99.90
54158;DHT22;40065;49.894;10.358;2023-02-01T11:26:26;7.30;99.90
54158;DHT22;40065;49.894;10.358;2023-02-01T11:31:29;7.30;99.90
54158;DHT22;40065;49.894;10.358;2023-02-01T11:36:33;7.30;99.90
54158;DHT22;40065;49.894;10.358;2023-02-01T11:41:58;7.20;99.90
54158;DHT22;40065;49.894;10.358;2023-02-01T11:47:20;7.20;99.90
54158;DHT22;40065;49.894;10.358;2023-02-01T11:53:01;7.20;99.90
54158;DHT22;40065;49.894;10.358;2023-02-01T12:19:51;7.40;99.90
54158;DHT22;40065;49.894;10.358;2023-02-01T12:36:03;7.30;99.90
54158;DHT22;40065;49.894;10.358;2023-02-01T12:46:44;7.30;99.90
54158;DHT22;40065;49.894;10.358;2023-02-01T12:51:49;7.30;99.90
54158;DHT22;40065;49.894;10.358;2023-02-01T12:56:58;7.30;99.90
54158;DHT22;40065;49.894;10.358;2023-02-01T13:02:25;7.30;99.90
54158;DHT22;40065;49.894;10.358;2023-02-01T13:07:36;7.20;99.90
54158;DHT22;40065;49.894;10.358;2023-02-01T13:12:48;7.30;99.90
54158;DHT22;40065;49.894;10.358;2023-02-01T13:17:53;7.40;99.90
54158;DHT22;40065;49.894;10.358;2023-02-01T13:23:08;7.40;99.90
54158;DHT22;40065;49.894;10.358;2023-02-01T13:28:18;7.30;99.90
54158;DHT22;40065;49.894;10.358;2023-02-01T13:39:17;7.40;99.90
54158;DHT22;40065;49.894;10.358;2023-02-01T13:44:39;7.40;99.90
54158;DHT22;40065;49.894;10.358;2023-02-01T13:49:42;7.30;99.90
54158;DHT22;40065;49.894;10.358;2023-02-01T13:54:45;7.30;99.90
54158;DHT22;40065;49.894;10.358;2023-02-01T13:59:51;7.30;99.90
54158;DHT22;40065;49.894;10.358;2023-02-01T14:04:54;7.20;99.90
54158;DHT22;40065;49.894;10.358;2023-02-01T14:09:56;7.30;99.90
54158;DHT22;40065;49.894;10.358;2023-02-01T14:15:19;7.30;99.90
54158;DHT22;40065;49.894;10.358;2023-02-01T14:20:43;7.30;99.90
54158;DHT22;40065;49.894;10.358;2023-02-01T14:25:59;7.30;99.90
54158;DHT22;40065;49.894;10.358;2023-02-01T14:31:14;7.30;99.90
54158;DHT22;40065;49.894;10.358;2023-02-01T14:36:18;7.30;99.90
54158;DHT22;40065;49.894;10.358;2023-02-01T14:41:30;7.30;99.90
54158;DHT22;40065;49.894;10.358;2023-02-01T14:47:05;7.40;99.90
54158;DHT22;40065;49.894;10.358;2023-02-01T14:52:12;7.40;99.90
54158;DHT22;40065;49.894;10.358;2023-02-01T14:57:18;7.40;99.90
54158;DHT22;40065;49.894;10.358;2023-02-01T15:02:24;7.40;99.90
54158;DHT22;40065;49.894;10.358;2023-02-01T15:07:27;7.20;99.90
54158;DHT22;40065;49.894;10.358;2023-02-01T15:12:30;7.20;99.90
54158;DHT22;40065;49.894;10.358;2023-02-01T15:17:34;7.20;99.90
54158;DHT22;40065;49.894;10.358;2023-02-01T15:22:36;7.20;99.90
54158;DHT22;40065;49.894;10.358;2023-02-01T15:27:37;7.20;99.90
54158;DHT22;40065;49.894;10.358;2023-02-01T15:32:40;7.20;99.90
54158;DHT22;40065;49.894;10.358;2023-02-01T15:37:41;7.30;99.90
54158;DHT22;40065;49.894;10.358;2023-02-01T15:42:51;7.20;99.90
54158;DHT22;40065;49.894;10.358;2023-02-01T15:47:55;7.20;99.90
54158;DHT22;40065;49.894;10.358;2023-02-01T15:52:58;7.10;99.90
54158;DHT22;40065;49.894;10.358;2023-02-01T15:58:00;7.10;99.90
54158;DHT22;40065;49.894;10.358;2023-02-01T16:03:04;7.00;99.90
54158;DHT22;40065;49.894;10.358;2023-02-01T16:08:16;7.10;99.90
54158;DHT22;40065;49.894;10.358;2023-02-01T16:13:20;7.10;99.90
54158;DHT22;40065;49.894;10.358;2023-02-01T16:18:22;7.00;99.90
54158;DHT22;40065;49.894;10.358;2023-02-01T16:23:23;7.10;99.90
54158;DHT22;40065;49.894;10.358;2023-02-01T16:28:25;7.00;99.90
54158;DHT22;40065;49.894;10.358;2023-02-01T16:33:27;7.00;99.90
54158;DHT22;40065;49.894;10.358;2023-02-01T16:38:29;7.00;99.90
54158;DHT22;40065;49.894;10.358;2023-02-01T16:43:32;7.00;99.90
54158;DHT22;40065;49.894;10.358;2023-02-01T16:48:35;7.20;99.90
54158;DHT22;40065;49.894;10.358;2023-02-01T16:53:38;7.10;99.90
54158;DHT22;40065;49.894;10.358;2023-02-01T16:58:54;7.20;99.90
54158;DHT22;40065;49.894;10.358;2023-02-01T17:03:56;7.20;99.90
54158;DHT22;40065;49.894;10.358;2023-02-01T17:08:59;7.10;99.90
54158;DHT22;40065;49.894;10.358;2023-02-01T17:14:22;7.20;99.90
54158;DHT22;40065;49.894;10.358;2023-02-01T17:19:24;7.20;99.90
54158;DHT22;40065;49.894;10.358;2023-02-01T17:24:28;7.10;99.90
54158;DHT22;40065;49.894;10.358;2023-02-01T17:29:48;7.00;99.90
54158;DHT22;40065;49.894;10.358;2023-02-01T17:34:50;6.90;99.90
54158;DHT22;40065;49.894;10.358;2023-02-01T17:39:52;6.80;99.90
54158;DHT22;40065;49.894;10.358;2023-02-01T17:44:59;6.80;99.90
54158;DHT22;40065;49.894;10.358;2023-02-01T17:50:02;6.80;99.90
54158;DHT22;40065;49.894;10.358;2023-02-01T17:55:23;6.80;99.90
54158;DHT22;40065;49.894;10.358;2023-02-01T18:00:26;6.80;99.90
54158;DHT22;40065;49.894;10.358;2023-02-01T18:05:40;6.80;99.90
54158;DHT22;40065;49.894;10.358;2023-02-01T18:10:43;6.80;99.90
54158;DHT22;40065;49.894;10.358;2023-02-01T18:15:45;6.90;99.90
54158;DHT22;40065;49.894;10.358;2023-02-01T18:20:47;6.90;99.90
54158;DHT22;40065;49.894;10.358;2023-02-01T18:25:50;6.90;99.90
54158;DHT22;40065;49.894;10.358;2023-02-01T18:30:53;6.90;99.90
54158;DHT22;40065;49.894;10.358;2023-02-01T18:35:55;6.80;99.90
54158;DHT22;40065;49.894;10.358;2023-02-01T18:40:56;6.80;99.90
54158;DHT22;40065;49.894;10.358;2023-02-01T18:45:58;6.80;99.90
54158;DHT22;40065;49.894;10.358;2023-02-01T18:51:00;6.70;99.90
54158;DHT22;40065;49.894;10.358;2023-02-01T18:56:03;6.70;99.90
54158;DHT22;40065;49.894;10.358;2023-02-01T19:01:08;6.80;99.90
54158;DHT22;40065;49.894;10.358;2023-02-01T19:06:15;6.70;99.90
54158;DHT22;40065;49.894;10.358;2023-02-01T19:11:17;6.60;99.90
54158;DHT22;40065;49.894;10.358;2023-02-01T19:16:19;6.60;99.90
54158;DHT22;40065;49.894;10.358;2023-02-01T19:21:21;6.60;99.90
54158;DHT22;40065;49.894;10.358;2023-02-01T19:26:23;6.70;99.90
54158;DHT22;40065;49.894;10.358;2023-02-01T19:31:25;6.80;99.90
54158;DHT22;40065;49.894;10.358;2023-02-01T19:36:27;6.80;99.90
54158;DHT22;40065;49.894;10.358;2023-02-01T19:41:29;6.80;99.90
54158;DHT22;40065;49.894;10.358;2023-02-01T19:46:31;6.80;99.90
54158;DHT22;40065;49.894;10.358;2023-02-01T19:51:33;6.90;99.90
54158;DHT22;40065;49.894;10.358;2023-02-01T19:56:35;6.80;99.90
54158;DHT22;40065;49.894;10.358;2023-02-01T20:01:38;6.70;99.90
54158;DHT22;40065;49.894;10.358;2023-02-01T20:06:41;6.70;99.90
54158;DHT22;40065;49.894;10.358;2023-02-01T20:11:51;6.70;99.90
54158;DHT22;40065;49.894;10.358;2023-02-01T20:16:55;6.60;99.90
54158;DHT22;40065;49.894;10.358;2023-02-01T20:21:57;6.60;99.90
54158;DHT22;40065;49.894;10.358;2023-02-01T20:27:00;6.50;99.90
54158;DHT22;40065;49.894;10.358;2023-02-01T20:32:02;6.40;99.90
54158;DHT22;40065;49.894;10.358;2023-02-01T20:37:05;6.20;99.90
54158;DHT22;40065;49.894;10.358;2023-02-01T20:42:07;6.30;99.90
54158;DHT22;40065;49.894;10.358;2023-02-01T20:47:10;6.20;99.90
54158;DHT22;40065;49.894;10.358;2023-02-01T20:52:12;6.10;99.90
54158;DHT22;40065;49.894;10.358;2023-02-01T20:57:14;6.20;99.90
54158;DHT22;40065;49.894;10.358;2023-02-01T21:02:16;6.10;99.90
54158;DHT22;40065;49.894;10.358;2023-02-01T21:07:18;6.10;99.90
54158;DHT22;40065;49.894;10.358;2023-02-01T21:12:21;6.20;99.90
54158;DHT22;40065;49.894;10.358;2023-02-01T21:17:23;6.10;99.90
54158;DHT22;40065;49.894;10.358;2023-02-01T21:22:28;6.10;99.90
54158;DHT22;40065;49.894;10.358;2023-02-01T21:27:31;6.10;99.90
54158;DHT22;40065;49.894;10.358;2023-02-01T21:32:33;6.10;99.90
54158;DHT22;40065;49.894;10.358;2023-02-01T21:37:35;6.10;99.90
54158;DHT22;40065;49.894;10.358;2023-02-01T21:42:37;6.00;99.90
54158;DHT22;40065;49.894;10.358;2023-02-01T21:47:41;6.10;99.90
54158;DHT22;40065;49.894;10.358;2023-02-01T21:52:43;6.10;99.90
54158;DHT22;40065;49.894;10.358;2023-02-01T21:57:45;6.10;99.90
54158;DHT22;40065;49.894;10.358;2023-02-01T22:02:47;6.20;99.90
54158;DHT22;40065;49.894;10.358;2023-02-01T22:07:49;6.20;99.90
54158;DHT22;40065;49.894;10.358;2023-02-01T22:12:50;6.30;99.90
54158;DHT22;40065;49.894;10.358;2023-02-01T22:17:52;6.30;99.90
54158;DHT22;40065;49.894;10.358;2023-02-01T22:22:54;6.40;99.90
54158;DHT22;40065;49.894;10.358;2023-02-01T22:27:57;6.40;99.90
54158;DHT22;40065;49.894;10.358;2023-02-01T22:33:19;6.40;99.90
54158;DHT22;40065;49.894;10.358;2023-02-01T22:38:21;6.50;99.90
54158;DHT22;40065;49.894;10.358;2023-02-01T22:43:24;6.50;99.90
54158;DHT22;40065;49.894;10.358;2023-02-01T22:48:27;6.50;99.90
54158;DHT22;40065;49.894;10.358;2023-02-01T22:53:29;6.60;99.90
54158;DHT22;40065;49.894;10.358;2023-02-01T22:58:32;6.70;99.90
54158;DHT22;40065;49.894;10.358;2023-02-01T23:03:37;6.60;99.90
54158;DHT22;40065;49.894;10.358;2023-02-01T23:08:39;6.20;99.90
54158;DHT22;40065;49.894;10.358;2023-02-01T23:13:41;5.80;99.90
54158;DHT22;40065;49.894;10.358;2023-02-01T23:18:42;5.60;99.90
54158;DHT22;40065;49.894;10.358;2023-02-01T23:23:46;5.40;99.90
54158;DHT22;40065;49.894;10.358;2023-02-01T23:28:48;5.50;99.90
54158;DHT22;40065;49.894;10.358;2023-02-01T23:33:51;5.40;99.90
54158;DHT22;40065;49.894;10.358;2023-02-01T23:38:57;5.60;99.90
54158;DHT22;40065;49.894;10.358;2023-02-01T23:43:59;5.50;99.90
54158;DHT22;40065;49.894;10.358;2023-02-01T23:49:03;5.60;99.90
54158;DHT22;40065;49.894;10.358;2023-02-01T23:54:07;5.60;99.90
54158;DHT22;40065;49.894;10.358;2023-02-01T23:59:19;5.70;99.90
